createdAt,value
2022-12-20T00:01:31.369Z,20.42
2022-12-20T00:07:39.462Z,20.50
2022-12-20T00:13:49.931Z,19.33
2022-12-20T00:20:11.556Z,18.65
2022-12-20T00:26:22.571Z,19.17
2022-12-20T00:32:29.559Z,19.73
2022-12-20T00:38:50.389Z,18.38
2022-12-20T00:45:07.532Z,17.90
2022-12-20T00:51:15.633Z,18.52
2022-12-20T00:57:17.810Z,18.17
2022-12-20T01:03:20.232Z,18.60
2022-12-20T01:09:22.173Z,17.98
2022-12-20T01:15:24.081Z,18.35
2022-12-20T01:21:27.383Z,19.35
2022-12-20T01:27:29.389Z,18.15
2022-12-20T01:33:31.282Z,18.50
2022-12-20T01:39:33.118Z,17.67
2022-12-20T01:45:35.184Z,18.23
2022-12-20T01:51:40.818Z,17.95
2022-12-20T01:58:04.931Z,15.98
2022-12-20T02:04:07.445Z,16.75
2022-12-20T02:10:11.781Z,17.85
2022-12-20T02:16:22.032Z,16.50
2022-12-20T02:22:48.516Z,16.88
2022-12-20T02:29:09.645Z,17.13
2022-12-20T02:35:15.052Z,15.90
2022-12-20T02:41:32.447Z,17.17
2022-12-20T02:47:41.591Z,17.52
2022-12-20T02:53:43.837Z,17.27
2022-12-20T02:59:56.377Z,17.98
2022-12-20T03:05:58.476Z,16.85
2022-12-20T03:12:00.746Z,17.10
2022-12-20T03:18:03.780Z,17.23
2022-12-20T03:24:06.616Z,18.15
2022-12-20T03:30:09.178Z,17.48
2022-12-20T03:36:12.953Z,17.23
2022-12-20T03:42:16.293Z,16.80
2022-12-20T03:48:18.170Z,19.02
2022-12-20T03:54:20.037Z,18.08
2022-12-20T04:00:41.130Z,18.27
2022-12-20T04:07:15.076Z,18.48
2022-12-20T04:13:20.795Z,17.88
2022-12-20T04:19:22.836Z,18.83
2022-12-20T04:25:24.941Z,18.65
2022-12-20T04:31:30.718Z,18.50
2022-12-20T04:37:32.747Z,19.17
2022-12-20T04:43:35.331Z,18.45
2022-12-20T04:49:39.187Z,18.52
2022-12-20T04:55:41.974Z,18.95
2022-12-20T05:01:44.257Z,18.20
2022-12-20T05:07:51.622Z,18.00
2022-12-20T05:13:53.757Z,17.38
2022-12-20T05:19:56.717Z,18.38
2022-12-20T05:26:17.645Z,16.73
2022-12-20T05:32:19.631Z,16.58
2022-12-20T05:38:22.843Z,17.42
2022-12-20T05:44:25.113Z,17.67
2022-12-20T05:50:31.565Z,17.13
2022-12-20T05:56:51.762Z,16.63
2022-12-20T06:02:58.936Z,17.27
2022-12-20T06:09:01.313Z,17.15
2022-12-20T06:15:20.590Z,17.73
2022-12-20T06:21:23.329Z,17.48
2022-12-20T06:27:28.073Z,17.67
2022-12-20T06:33:43.422Z,15.80
2022-12-20T06:39:46.503Z,16.35
2022-12-20T06:45:49.297Z,16.17
2022-12-20T06:51:51.398Z,16.25
2022-12-20T06:57:58.119Z,16.70
2022-12-20T07:04:01.146Z,16.65
2022-12-20T07:10:03.165Z,16.33
2022-12-20T07:16:06.093Z,16.95
2022-12-20T07:22:08.079Z,15.82
2022-12-20T07:28:09.899Z,15.63
2022-12-20T07:34:11.978Z,17.42
2022-12-20T07:40:14.869Z,15.88
2022-12-20T07:46:17.275Z,15.95
2022-12-20T07:52:24.754Z,15.48
2022-12-20T07:58:27.507Z,15.63
2022-12-20T08:04:30.983Z,16.27
2022-12-20T08:10:32.979Z,16.25
2022-12-20T08:16:35.116Z,15.20
2022-12-20T08:22:37.013Z,14.80
2022-12-20T08:28:39.019Z,15.13
2022-12-20T08:34:40.841Z,15.68
2022-12-20T08:40:42.699Z,15.75
2022-12-20T08:46:44.655Z,16.52
2022-12-20T08:52:46.557Z,14.52
2022-12-20T08:58:49.025Z,14.98
2022-12-20T09:04:50.926Z,13.98
2022-12-20T09:10:53.322Z,13.80
2022-12-20T09:16:55.260Z,13.70
2022-12-20T09:22:59.799Z,12.70
2022-12-20T09:29:05.196Z,12.95
2022-12-20T09:35:07.329Z,12.30
2022-12-20T09:41:37.294Z,12.43
2022-12-20T09:47:39.352Z,11.95
2022-12-20T09:53:59.633Z,11.63
2022-12-20T10:00:01.564Z,10.77
2022-12-20T10:06:35.632Z,9.75
2022-12-20T10:13:01.667Z,10.55
2022-12-20T10:19:30.454Z,9.90
2022-12-20T10:25:33.976Z,9.73
2022-12-20T10:31:36.550Z,9.20
2022-12-20T10:37:41.390Z,8.93
2022-12-20T10:43:50.257Z,8.60
2022-12-20T10:49:52.080Z,9.13
2022-12-20T10:55:55.133Z,9.13
2022-12-20T11:01:57.100Z,8.73
2022-12-20T11:14:38.063Z,8.27
2022-12-20T11:20:53.470Z,8.02
2022-12-20T11:27:15.235Z,8.45
2022-12-20T11:33:23.397Z,7.57
2022-12-20T11:39:42.486Z,8.02
2022-12-20T11:46:17.023Z,7.93
2022-12-20T11:52:41.400Z,8.30
2022-12-20T11:58:55.871Z,8.50
2022-12-20T12:05:03.135Z,8.32
2022-12-20T12:11:40.001Z,7.73
2022-12-20T12:17:44.500Z,7.18
2022-12-20T12:24:05.826Z,7.05
2022-12-20T12:30:13.641Z,7.22
2022-12-20T12:43:00.668Z,6.55
2022-12-20T12:49:17.655Z,7.10
2022-12-20T12:55:47.203Z,6.30
2022-12-20T13:02:00.598Z,6.78
2022-12-20T13:08:03.149Z,6.68
2022-12-20T13:14:27.244Z,6.60
2022-12-20T13:20:32.094Z,7.22
2022-12-20T13:26:53.012Z,7.85
2022-12-20T13:33:02.863Z,7.47
2022-12-20T13:39:23.124Z,6.57
2022-12-20T13:45:26.214Z,7.82
2022-12-20T13:51:28.765Z,7.45
2022-12-20T13:57:42.694Z,7.35
2022-12-20T14:03:47.959Z,7.43
2022-12-20T14:09:57.176Z,7.53
2022-12-20T14:16:10.556Z,8.07
2022-12-20T14:22:12.726Z,7.80
2022-12-20T14:28:47.330Z,7.75
2022-12-20T14:34:49.253Z,7.68
2022-12-20T14:40:54.131Z,8.30
2022-12-20T14:47:15.503Z,8.57
2022-12-20T14:53:25.131Z,8.23
2022-12-20T14:59:29.457Z,8.63
2022-12-20T15:05:35.111Z,8.57
2022-12-20T15:11:38.080Z,8.48
2022-12-20T15:17:39.831Z,8.80
2022-12-20T15:23:48.466Z,8.85
2022-12-20T15:29:50.316Z,8.30
2022-12-20T15:35:52.979Z,8.82
2022-12-20T15:41:54.803Z,9.18
2022-12-20T15:47:56.530Z,9.23
2022-12-20T15:54:00.430Z,9.30
2022-12-20T16:00:03.915Z,8.68
2022-12-20T16:06:14.924Z,9.32
2022-12-20T16:12:21.377Z,9.00
2022-12-20T16:18:23.237Z,9.15
2022-12-20T16:24:25.059Z,9.23
2022-12-20T16:30:27.615Z,8.88
2022-12-20T16:36:30.025Z,8.93
2022-12-20T16:42:31.854Z,8.95
2022-12-20T16:48:33.814Z,8.65
2022-12-20T16:54:36.353Z,9.07
2022-12-20T17:00:38.328Z,9.57
2022-12-20T17:06:40.344Z,9.32
2022-12-20T17:12:42.092Z,8.88
2022-12-20T17:18:46.260Z,8.60
2022-12-20T17:24:48.062Z,9.20
2022-12-20T17:30:50.530Z,9.25
2022-12-20T17:36:55.179Z,9.18
2022-12-20T17:42:57.051Z,9.38
2022-12-20T17:48:59.051Z,9.68
2022-12-20T17:55:00.852Z,9.95
2022-12-20T18:01:03.599Z,9.75
2022-12-20T18:07:05.633Z,10.00
2022-12-20T18:13:07.381Z,9.60
2022-12-20T18:19:19.094Z,9.43
2022-12-20T18:25:20.902Z,9.23
2022-12-20T18:31:26.101Z,9.35
2022-12-20T18:37:28.800Z,9.80
2022-12-20T18:43:32.493Z,9.35
2022-12-20T18:49:34.807Z,9.93
2022-12-20T18:55:37.940Z,10.15
2022-12-20T19:01:43.035Z,10.32
2022-12-20T19:07:45.314Z,9.80
2022-12-20T19:13:47.885Z,10.75
2022-12-20T19:19:50.349Z,10.15
2022-12-20T19:25:52.223Z,9.57
2022-12-20T19:31:54.045Z,10.32
2022-12-20T19:37:57.009Z,9.75
2022-12-20T19:43:59.610Z,9.60
2022-12-20T19:50:01.403Z,9.98
2022-12-20T19:56:04.099Z,10.43
2022-12-20T20:02:06.609Z,10.27
2022-12-20T20:08:09.546Z,10.23
2022-12-20T20:14:11.334Z,10.90
2022-12-20T20:20:13.882Z,9.85
2022-12-20T20:26:18.777Z,10.75
2022-12-20T20:32:20.606Z,11.05
2022-12-20T20:38:23.222Z,11.05
2022-12-20T20:44:25.063Z,10.75
2022-12-20T20:50:26.863Z,10.02
2022-12-20T20:56:28.740Z,11.13
2022-12-20T21:02:31.865Z,10.63
2022-12-20T21:08:33.995Z,11.02
2022-12-20T21:15:10.517Z,10.88
2022-12-20T21:20:59.598Z,12.00
2022-12-20T21:27:19.965Z,11.52
2022-12-20T21:33:21.778Z,11.45
2022-12-20T21:39:24.655Z,12.57
2022-12-20T21:45:26.458Z,12.00
2022-12-20T21:51:29.425Z,11.73
2022-12-20T21:57:31.288Z,12.18
2022-12-20T22:03:33.294Z,11.73
2022-12-20T22:09:35.394Z,12.52
2022-12-20T22:15:38.268Z,12.90
2022-12-20T22:21:40.171Z,12.88
2022-12-20T22:27:41.925Z,14.52
2022-12-20T22:33:44.687Z,13.60
2022-12-20T22:39:46.658Z,15.35
2022-12-20T22:45:59.513Z,14.70
2022-12-20T22:52:07.355Z,15.77
2022-12-20T22:58:09.900Z,16.15
2022-12-20T23:04:12.373Z,17.58
2022-12-20T23:10:37.019Z,17.77
2022-12-20T23:16:39.021Z,19.42
2022-12-20T23:22:41.089Z,18.60
2022-12-20T23:28:45.118Z,20.00
2022-12-20T23:34:47.177Z,19.63
2022-12-20T23:40:49.085Z,20.23
2022-12-20T23:46:51.167Z,20.73
2022-12-20T23:52:53.119Z,21.27
2022-12-20T23:58:55.962Z,22.05
